sensor_id;sensor_type;location;lat;lon;timestamp;temperature;humidity
5334;DHT22;2689;50.954;7.116;2023-04-03T00:00:38;4.60;99.90
5334;DHT22;2689;50.954;7.116;2023-04-03T00:03:05;4.60;99.90
5334;DHT22;2689;50.954;7.116;2023-04-03T00:05:31;4.60;99.90
5334;DHT22;2689;50.954;7.116;2023-04-03T00:07:59;4.60;99.90
5334;DHT22;2689;50.954;7.116;2023-04-03T00:10:27;4.60;99.90
5334;DHT22;2689;50.954;7.116;2023-04-03T00:12:54;4.60;99.90
5334;DHT22;2689;50.954;7.116;2023-04-03T00:15:21;4.60;99.90
5334;DHT22;2689;50.954;7.116;2023-04-03T00:17:47;4.60;99.90
5334;DHT22;2689;50.954;7.116;2023-04-03T00:20:14;4.60;99.90
5334;DHT22;2689;50.954;7.116;2023-04-03T00:22:41;4.60;99.90
5334;DHT22;2689;50.954;7.116;2023-04-03T00:25:12;4.60;99.90
5334;DHT22;2689;50.954;7.116;2023-04-03T00:27:42;4.50;99.90
5334;DHT22;2689;50.954;7.116;2023-04-03T00:30:12;4.50;99.90
5334;DHT22;2689;50.954;7.116;2023-04-03T00:32:39;4.40;99.90
5334;DHT22;2689;50.954;7.116;2023-04-03T00:35:07;4.40;99.90
5334;DHT22;2689;50.954;7.116;2023-04-03T00:37:34;4.40;99.90
5334;DHT22;2689;50.954;7.116;2023-04-03T00:40:01;4.40;99.90
5334;DHT22;2689;50.954;7.116;2023-04-03T00:42:29;4.30;99.90
5334;DHT22;2689;50.954;7.116;2023-04-03T00:48:00;4.20;99.90
5334;DHT22;2689;50.954;7.116;2023-04-03T00:50:28;4.20;99.90
5334;DHT22;2689;50.954;7.116;2023-04-03T00:52:56;4.20;99.90
5334;DHT22;2689;50.954;7.116;2023-04-03T00:55:23;4.20;99.90
5334;DHT22;2689;50.954;7.116;2023-04-03T00:57:52;4.20;99.90
5334;DHT22;2689;50.954;7.116;2023-04-03T01:00:22;4.20;99.90
5334;DHT22;2689;50.954;7.116;2023-04-03T01:02:50;4.10;99.90
5334;DHT22;2689;50.954;7.116;2023-04-03T01:05:18;4.10;99.90
5334;DHT22;2689;50.954;7.116;2023-04-03T01:07:46;4.10;99.90
5334;DHT22;2689;50.954;7.116;2023-04-03T01:10:15;4.00;99.90
5334;DHT22;2689;50.954;7.116;2023-04-03T01:12:44;4.00;99.90
5334;DHT22;2689;50.954;7.116;2023-04-03T01:15:15;3.90;99.90
5334;DHT22;2689;50.954;7.116;2023-04-03T01:17:44;3.80;99.90
5334;DHT22;2689;50.954;7.116;2023-04-03T01:20:41;3.70;99.90
5334;DHT22;2689;50.954;7.116;2023-04-03T01:23:21;3.60;99.90
5334;DHT22;2689;50.954;7.116;2023-04-03T01:25:51;3.60;99.90
5334;DHT22;2689;50.954;7.116;2023-04-03T01:28:21;3.50;99.90
5334;DHT22;2689;50.954;7.116;2023-04-03T01:30:53;3.50;99.90
5334;DHT22;2689;50.954;7.116;2023-04-03T01:33:24;3.40;99.90
5334;DHT22;2689;50.954;7.116;2023-04-03T01:35:51;3.40;99.90
5334;DHT22;2689;50.954;7.116;2023-04-03T01:38:18;3.30;99.90
5334;DHT22;2689;50.954;7.116;2023-04-03T01:40:44;3.30;99.90
5334;DHT22;2689;50.954;7.116;2023-04-03T01:43:11;3.20;99.90
5334;DHT22;2689;50.954;7.116;2023-04-03T01:45:38;3.20;99.90
5334;DHT22;2689;50.954;7.116;2023-04-03T01:48:05;3.10;99.90
5334;DHT22;2689;50.954;7.116;2023-04-03T01:50:33;3.10;99.90
5334;DHT22;2689;50.954;7.116;2023-04-03T01:53:00;3.10;99.90
5334;DHT22;2689;50.954;7.116;2023-04-03T01:55:26;3.00;99.90
5334;DHT22;2689;50.954;7.116;2023-04-03T01:57:53;3.00;99.90
5334;DHT22;2689;50.954;7.116;2023-04-03T02:00:20;3.00;99.90
5334;DHT22;2689;50.954;7.116;2023-04-03T02:02:47;2.90;99.90
5334;DHT22;2689;50.954;7.116;2023-04-03T02:05:14;2.90;99.90
5334;DHT22;2689;50.954;7.116;2023-04-03T02:07:42;2.90;99.90
5334;DHT22;2689;50.954;7.116;2023-04-03T02:10:09;2.80;99.90
5334;DHT22;2689;50.954;7.116;2023-04-03T02:12:37;2.80;99.90
5334;DHT22;2689;50.954;7.116;2023-04-03T02:15:05;2.80;99.90
5334;DHT22;2689;50.954;7.116;2023-04-03T02:17:32;2.70;99.90
5334;DHT22;2689;50.954;7.116;2023-04-03T02:19:59;2.70;99.90
5334;DHT22;2689;50.954;7.116;2023-04-03T02:22:25;2.60;99.90
5334;DHT22;2689;50.954;7.116;2023-04-03T02:24:54;2.60;99.90
5334;DHT22;2689;50.954;7.116;2023-04-03T02:27:20;2.60;99.90
5334;DHT22;2689;50.954;7.116;2023-04-03T02:29:47;2.50;99.90
5334;DHT22;2689;50.954;7.116;2023-04-03T02:32:14;2.50;99.90
5334;DHT22;2689;50.954;7.116;2023-04-03T02:34:41;2.50;99.90
5334;DHT22;2689;50.954;7.116;2023-04-03T02:37:07;2.50;99.90
5334;DHT22;2689;50.954;7.116;2023-04-03T02:39:34;2.40;99.90
5334;DHT22;2689;50.954;7.116;2023-04-03T02:42:03;2.40;99.90
5334;DHT22;2689;50.954;7.116;2023-04-03T02:44:29;2.40;99.90
5334;DHT22;2689;50.954;7.116;2023-04-03T02:46:56;2.40;99.90
5334;DHT22;2689;50.954;7.116;2023-04-03T02:49:23;2.40;99.90
5334;DHT22;2689;50.954;7.116;2023-04-03T02:51:50;2.30;99.90
5334;DHT22;2689;50.954;7.116;2023-04-03T02:54:17;2.30;99.90
5334;DHT22;2689;50.954;7.116;2023-04-03T02:56:44;2.30;99.90
5334;DHT22;2689;50.954;7.116;2023-04-03T02:59:12;2.30;99.90
5334;DHT22;2689;50.954;7.116;2023-04-03T03:01:39;2.30;99.90
5334;DHT22;2689;50.954;7.116;2023-04-03T03:04:05;2.20;99.90
5334;DHT22;2689;50.954;7.116;2023-04-03T03:06:32;2.20;99.90
5334;DHT22;2689;50.954;7.116;2023-04-03T03:08:59;2.30;99.90
5334;DHT22;2689;50.954;7.116;2023-04-03T03:11:26;2.30;99.90
5334;DHT22;2689;50.954;7.116;2023-04-03T03:13:52;2.20;99.90
5334;DHT22;2689;50.954;7.116;2023-04-03T03:16:20;2.30;99.90
5334;DHT22;2689;50.954;7.116;2023-04-03T03:18:49;2.40;99.90
5334;DHT22;2689;50.954;7.116;2023-04-03T03:21:16;2.40;99.90
5334;DHT22;2689;50.954;7.116;2023-04-03T03:23:43;2.40;99.90
5334;DHT22;2689;50.954;7.116;2023-04-03T03:26:10;2.40;99.90
5334;DHT22;2689;50.954;7.116;2023-04-03T03:28:38;2.30;99.90
5334;DHT22;2689;50.954;7.116;2023-04-03T03:31:06;2.40;99.90
5334;DHT22;2689;50.954;7.116;2023-04-03T03:33:35;2.40;99.90
5334;DHT22;2689;50.954;7.116;2023-04-03T03:36:02;2.40;99.90
5334;DHT22;2689;50.954;7.116;2023-04-03T03:38:29;2.40;99.90
5334;DHT22;2689;50.954;7.116;2023-04-03T03:40:56;2.40;99.90
5334;DHT22;2689;50.954;7.116;2023-04-03T03:43:22;2.40;99.90
5334;DHT22;2689;50.954;7.116;2023-04-03T03:45:50;2.40;99.90
5334;DHT22;2689;50.954;7.116;2023-04-03T03:48:18;2.40;99.90
5334;DHT22;2689;50.954;7.116;2023-04-03T03:50:46;2.50;99.90
5334;DHT22;2689;50.954;7.116;2023-04-03T03:53:13;2.50;99.90
5334;DHT22;2689;50.954;7.116;2023-04-03T03:55:40;2.60;99.90
5334;DHT22;2689;50.954;7.116;2023-04-03T03:58:07;2.60;99.90
5334;DHT22;2689;50.954;7.116;2023-04-03T04:00:34;2.60;99.90
5334;DHT22;2689;50.954;7.116;2023-04-03T04:03:01;2.60;99.90
5334;DHT22;2689;50.954;7.116;2023-04-03T04:05:28;2.60;99.90
5334;DHT22;2689;50.954;7.116;2023-04-03T04:07:57;2.60;99.90
5334;DHT22;2689;50.954;7.116;2023-04-03T04:10:24;2.60;99.90
5334;DHT22;2689;50.954;7.116;2023-04-03T04:12:50;2.60;99.90
5334;DHT22;2689;50.954;7.116;2023-04-03T04:15:17;2.60;99.90
5334;DHT22;2689;50.954;7.116;2023-04-03T04:17:44;2.50;99.90
5334;DHT22;2689;50.954;7.116;2023-04-03T04:20:11;2.50;99.90
5334;DHT22;2689;50.954;7.116;2023-04-03T04:22:38;2.40;99.90
5334;DHT22;2689;50.954;7.116;2023-04-03T04:25:06;2.40;99.90
5334;DHT22;2689;50.954;7.116;2023-04-03T04:27:33;2.40;99.90
5334;DHT22;2689;50.954;7.116;2023-04-03T04:30:00;2.40;99.90
5334;DHT22;2689;50.954;7.116;2023-04-03T04:32:28;2.30;99.90
5334;DHT22;2689;50.954;7.116;2023-04-03T04:34:55;2.30;99.90
5334;DHT22;2689;50.954;7.116;2023-04-03T04:37:23;2.30;99.90
5334;DHT22;2689;50.954;7.116;2023-04-03T04:39:50;2.30;99.90
5334;DHT22;2689;50.954;7.116;2023-04-03T04:42:18;2.30;99.90
5334;DHT22;2689;50.954;7.116;2023-04-03T04:44:45;2.30;99.90
5334;DHT22;2689;50.954;7.116;2023-04-03T04:47:12;2.20;99.90
5334;DHT22;2689;50.954;7.116;2023-04-03T04:49:38;2.20;99.90
5334;DHT22;2689;50.954;7.116;2023-04-03T04:52:05;2.30;99.90
5334;DHT22;2689;50.954;7.116;2023-04-03T04:54:32;2.30;99.90
5334;DHT22;2689;50.954;7.116;2023-04-03T04:56:59;2.40;99.90
5334;DHT22;2689;50.954;7.116;2023-04-03T04:59:28;2.40;99.90
5334;DHT22;2689;50.954;7.116;2023-04-03T05:01:55;2.50;99.90
5334;DHT22;2689;50.954;7.116;2023-04-03T05:04:22;2.50;99.90
5334;DHT22;2689;50.954;7.116;2023-04-03T05:06:50;2.50;99.90
5334;DHT22;2689;50.954;7.116;2023-04-03T05:09:17;2.50;99.90
5334;DHT22;2689;50.954;7.116;2023-04-03T05:11:45;2.50;99.90
5334;DHT22;2689;50.954;7.116;2023-04-03T05:14:12;2.50;99.90
5334;DHT22;2689;50.954;7.116;2023-04-03T05:16:40;2.60;99.90
5334;DHT22;2689;50.954;7.116;2023-04-03T05:19:06;2.60;99.90
5334;DHT22;2689;50.954;7.116;2023-04-03T05:21:34;2.60;99.90
5334;DHT22;2689;50.954;7.116;2023-04-03T05:24:01;2.60;99.90
5334;DHT22;2689;50.954;7.116;2023-04-03T05:26:28;2.70;99.90
5334;DHT22;2689;50.954;7.116;2023-04-03T05:28:55;2.70;99.90
5334;DHT22;2689;50.954;7.116;2023-04-03T05:31:22;2.60;99.90
5334;DHT22;2689;50.954;7.116;2023-04-03T05:33:50;2.70;99.90
5334;DHT22;2689;50.954;7.116;2023-04-03T05:36:17;2.70;99.90
5334;DHT22;2689;50.954;7.116;2023-04-03T05:38:44;2.70;99.90
5334;DHT22;2689;50.954;7.116;2023-04-03T05:41:11;2.70;99.90
5334;DHT22;2689;50.954;7.116;2023-04-03T05:43:38;2.70;99.90
5334;DHT22;2689;50.954;7.116;2023-04-03T05:46:09;2.70;99.90
5334;DHT22;2689;50.954;7.116;2023-04-03T05:48:36;2.80;99.90
5334;DHT22;2689;50.954;7.116;2023-04-03T05:51:05;2.70;99.90
5334;DHT22;2689;50.954;7.116;2023-04-03T05:53:34;2.80;99.90
5334;DHT22;2689;50.954;7.116;2023-04-03T05:56:02;2.90;99.90
5334;DHT22;2689;50.954;7.116;2023-04-03T05:58:29;2.90;99.90
5334;DHT22;2689;50.954;7.116;2023-04-03T06:00:56;2.90;99.90
5334;DHT22;2689;50.954;7.116;2023-04-03T06:03:22;2.90;99.90
5334;DHT22;2689;50.954;7.116;2023-04-03T06:05:49;3.00;99.90
5334;DHT22;2689;50.954;7.116;2023-04-03T06:08:17;3.00;99.90
5334;DHT22;2689;50.954;7.116;2023-04-03T06:10:44;3.10;99.90
5334;DHT22;2689;50.954;7.116;2023-04-03T06:13:11;3.20;99.90
5334;DHT22;2689;50.954;7.116;2023-04-03T06:15:39;3.30;99.90
5334;DHT22;2689;50.954;7.116;2023-04-03T06:18:06;3.30;99.90
5334;DHT22;2689;50.954;7.116;2023-04-03T06:20:33;3.40;99.90
5334;DHT22;2689;50.954;7.116;2023-04-03T06:23:00;3.40;99.90
5334;DHT22;2689;50.954;7.116;2023-04-03T06:25:29;3.50;99.90
5334;DHT22;2689;50.954;7.116;2023-04-03T06:27:57;3.60;99.90
5334;DHT22;2689;50.954;7.116;2023-04-03T06:30:24;3.70;99.90
5334;DHT22;2689;50.954;7.116;2023-04-03T06:32:50;3.70;99.90
5334;DHT22;2689;50.954;7.116;2023-04-03T06:35:17;3.80;99.90
5334;DHT22;2689;50.954;7.116;2023-04-03T06:37:44;4.00;99.90
5334;DHT22;2689;50.954;7.116;2023-04-03T06:40:17;4.10;99.90
5334;DHT22;2689;50.954;7.116;2023-04-03T06:42:46;4.30;99.90
5334;DHT22;2689;50.954;7.116;2023-04-03T06:48:25;4.60;99.90
5334;DHT22;2689;50.954;7.116;2023-04-03T06:50:51;4.80;99.90
5334;DHT22;2689;50.954;7.116;2023-04-03T06:53:19;4.90;99.80
5334;DHT22;2689;50.954;7.116;2023-04-03T06:55:46;5.00;99.00
5334;DHT22;2689;50.954;7.116;2023-04-03T06:58:14;5.10;98.40
5334;DHT22;2689;50.954;7.116;2023-04-03T07:04:04;5.40;97.70
5334;DHT22;2689;50.954;7.116;2023-04-03T07:06:31;5.60;96.70
5334;DHT22;2689;50.954;7.116;2023-04-03T07:08:59;5.60;96.10
5334;DHT22;2689;50.954;7.116;2023-04-03T07:11:26;5.70;95.80
5334;DHT22;2689;50.954;7.116;2023-04-03T07:13:54;5.50;95.10
5334;DHT22;2689;50.954;7.116;2023-04-03T07:16:22;5.60;95.40
5334;DHT22;2689;50.954;7.116;2023-04-03T07:18:48;5.70;95.00
5334;DHT22;2689;50.954;7.116;2023-04-03T07:21:15;5.70;94.60
5334;DHT22;2689;50.954;7.116;2023-04-03T07:23:42;5.90;94.70
5334;DHT22;2689;50.954;7.116;2023-04-03T07:26:09;6.00;94.00
5334;DHT22;2689;50.954;7.116;2023-04-03T07:28:35;6.20;93.70
5334;DHT22;2689;50.954;7.116;2023-04-03T07:31:07;6.60;93.30
5334;DHT22;2689;50.954;7.116;2023-04-03T07:33:37;7.20;92.70
5334;DHT22;2689;50.954;7.116;2023-04-03T07:36:04;8.00;92.00
5334;DHT22;2689;50.954;7.116;2023-04-03T07:38:32;8.60;89.70
5334;DHT22;2689;50.954;7.116;2023-04-03T07:40:59;9.40;88.30
5334;DHT22;2689;50.954;7.116;2023-04-03T07:43:26;10.00;83.10
5334;DHT22;2689;50.954;7.116;2023-04-03T07:45:53;10.50;79.20
5334;DHT22;2689;50.954;7.116;2023-04-03T07:48:23;10.70;76.60
5334;DHT22;2689;50.954;7.116;2023-04-03T07:50:51;11.30;75.90
5334;DHT22;2689;50.954;7.116;2023-04-03T07:53:18;11.80;72.60
5334;DHT22;2689;50.954;7.116;2023-04-03T07:55:46;12.20;71.80
5334;DHT22;2689;50.954;7.116;2023-04-03T07:58:16;12.60;69.10
5334;DHT22;2689;50.954;7.116;2023-04-03T08:00:43;13.50;66.00
5334;DHT22;2689;50.954;7.116;2023-04-03T08:03:11;13.80;65.00
5334;DHT22;2689;50.954;7.116;2023-04-03T08:05:40;15.00;63.60
5334;DHT22;2689;50.954;7.116;2023-04-03T08:08:07;16.20;59.40
5334;DHT22;2689;50.954;7.116;2023-04-03T08:10:35;17.20;55.50
5334;DHT22;2689;50.954;7.116;2023-04-03T08:13:02;17.20;54.30
5334;DHT22;2689;50.954;7.116;2023-04-03T08:15:30;17.10;50.70
5334;DHT22;2689;50.954;7.116;2023-04-03T08:17:57;17.90;50.70
5334;DHT22;2689;50.954;7.116;2023-04-03T08:20:23;18.30;49.80
5334;DHT22;2689;50.954;7.116;2023-04-03T08:22:52;18.50;47.70
5334;DHT22;2689;50.954;7.116;2023-04-03T08:25:19;19.20;46.80
5334;DHT22;2689;50.954;7.116;2023-04-03T08:27:46;19.80;44.60
5334;DHT22;2689;50.954;7.116;2023-04-03T08:30:13;18.50;42.40
5334;DHT22;2689;50.954;7.116;2023-04-03T08:32:40;18.60;43.50
5334;DHT22;2689;50.954;7.116;2023-04-03T08:35:09;17.90;41.90
5334;DHT22;2689;50.954;7.116;2023-04-03T08:37:36;17.90;43.70
5334;DHT22;2689;50.954;7.116;2023-04-03T08:40:06;19.20;43.10
5334;DHT22;2689;50.954;7.116;2023-04-03T08:42:44;20.50;41.50
5334;DHT22;2689;50.954;7.116;2023-04-03T08:45:16;19.60;38.50
5334;DHT22;2689;50.954;7.116;2023-04-03T08:47:48;19.90;39.10
5334;DHT22;2689;50.954;7.116;2023-04-03T08:50:20;20.90;40.00
5334;DHT22;2689;50.954;7.116;2023-04-03T08:52:51;21.90;37.60
5334;DHT22;2689;50.954;7.116;2023-04-03T08:55:24;22.30;36.00
5334;DHT22;2689;50.954;7.116;2023-04-03T08:57:58;20.90;34.90
5334;DHT22;2689;50.954;7.116;2023-04-03T09:00:30;20.90;36.80
5334;DHT22;2689;50.954;7.116;2023-04-03T09:02:57;21.20;35.40
5334;DHT22;2689;50.954;7.116;2023-04-03T09:05:35;20.70;34.70
5334;DHT22;2689;50.954;7.116;2023-04-03T09:08:12;20.40;36.10
5334;DHT22;2689;50.954;7.116;2023-04-03T09:10:42;21.00;36.10
5334;DHT22;2689;50.954;7.116;2023-04-03T09:13:17;20.90;35.00
5334;DHT22;2689;50.954;7.116;2023-04-03T09:15:46;20.30;35.50
5334;DHT22;2689;50.954;7.116;2023-04-03T09:18:16;19.90;36.50
5334;DHT22;2689;50.954;7.116;2023-04-03T09:20:54;21.00;37.40
5334;DHT22;2689;50.954;7.116;2023-04-03T09:23:27;20.80;34.30
5334;DHT22;2689;50.954;7.116;2023-04-03T09:26:00;21.10;35.00
5334;DHT22;2689;50.954;7.116;2023-04-03T09:28:30;22.00;34.70
5334;DHT22;2689;50.954;7.116;2023-04-03T09:31:00;23.20;33.10
5334;DHT22;2689;50.954;7.116;2023-04-03T09:33:27;22.80;30.00
5334;DHT22;2689;50.954;7.116;2023-04-03T09:35:55;23.40;30.00
5334;DHT22;2689;50.954;7.116;2023-04-03T09:38:22;23.80;28.20
5334;DHT22;2689;50.954;7.116;2023-04-03T09:41:02;23.80;26.70
5334;DHT22;2689;50.954;7.116;2023-04-03T09:43:31;23.70;26.20
5334;DHT22;2689;50.954;7.116;2023-04-03T09:46:29;23.90;25.90
5334;DHT22;2689;50.954;7.116;2023-04-03T09:48:58;22.70;26.20
5334;DHT22;2689;50.954;7.116;2023-04-03T09:51:26;22.40;26.00
5334;DHT22;2689;50.954;7.116;2023-04-03T09:53:54;22.50;26.40
5334;DHT22;2689;50.954;7.116;2023-04-03T09:56:24;22.80;27.30
5334;DHT22;2689;50.954;7.116;2023-04-03T09:59:07;23.40;27.60
5334;DHT22;2689;50.954;7.116;2023-04-03T10:01:36;23.80;25.70
5334;DHT22;2689;50.954;7.116;2023-04-03T10:04:07;23.80;26.00
5334;DHT22;2689;50.954;7.116;2023-04-03T10:06:35;23.60;24.80
5334;DHT22;2689;50.954;7.116;2023-04-03T10:09:06;23.30;24.30
5334;DHT22;2689;50.954;7.116;2023-04-03T10:11:33;23.60;23.70
5334;DHT22;2689;50.954;7.116;2023-04-03T10:14:02;23.30;24.10
5334;DHT22;2689;50.954;7.116;2023-04-03T10:16:36;23.40;24.00
5334;DHT22;2689;50.954;7.116;2023-04-03T10:19:32;23.40;24.60
5334;DHT22;2689;50.954;7.116;2023-04-03T10:22:10;23.90;24.60
5334;DHT22;2689;50.954;7.116;2023-04-03T10:24:47;23.80;23.70
5334;DHT22;2689;50.954;7.116;2023-04-03T10:27:20;23.20;24.30
5334;DHT22;2689;50.954;7.116;2023-04-03T10:29:57;23.60;25.40
5334;DHT22;2689;50.954;7.116;2023-04-03T10:32:41;24.50;25.10
5334;DHT22;2689;50.954;7.116;2023-04-03T10:35:18;24.90;25.00
5334;DHT22;2689;50.954;7.116;2023-04-03T10:37:55;25.20;23.60
5334;DHT22;2689;50.954;7.116;2023-04-03T10:40:30;25.40;23.60
5334;DHT22;2689;50.954;7.116;2023-04-03T10:43:04;25.10;23.70
5334;DHT22;2689;50.954;7.116;2023-04-03T10:45:50;24.20;23.40
5334;DHT22;2689;50.954;7.116;2023-04-03T10:48:39;23.80;24.10
5334;DHT22;2689;50.954;7.116;2023-04-03T10:51:22;22.30;24.30
5334;DHT22;2689;50.954;7.116;2023-04-03T10:53:56;21.70;24.80
5334;DHT22;2689;50.954;7.116;2023-04-03T10:56:30;20.60;25.80
5334;DHT22;2689;50.954;7.116;2023-04-03T10:59:07;20.90;26.60
5334;DHT22;2689;50.954;7.116;2023-04-03T11:01:41;20.90;26.50
5334;DHT22;2689;50.954;7.116;2023-04-03T11:04:11;21.10;25.20
5334;DHT22;2689;50.954;7.116;2023-04-03T11:06:42;20.20;25.00
5334;DHT22;2689;50.954;7.116;2023-04-03T11:09:18;20.50;26.00
5334;DHT22;2689;50.954;7.116;2023-04-03T11:11:47;21.60;26.40
5334;DHT22;2689;50.954;7.116;2023-04-03T11:14:19;22.60;26.30
5334;DHT22;2689;50.954;7.116;2023-04-03T11:16:57;23.40;24.70
5334;DHT22;2689;50.954;7.116;2023-04-03T11:19:33;23.80;24.80
5334;DHT22;2689;50.954;7.116;2023-04-03T11:22:16;24.30;24.70
5334;DHT22;2689;50.954;7.116;2023-04-03T11:24:56;24.30;24.20
5334;DHT22;2689;50.954;7.116;2023-04-03T11:27:27;24.40;22.80
5334;DHT22;2689;50.954;7.116;2023-04-03T11:29:58;23.80;23.50
5334;DHT22;2689;50.954;7.116;2023-04-03T11:32:48;23.60;23.50
5334;DHT22;2689;50.954;7.116;2023-04-03T11:35:20;23.40;23.40
5334;DHT22;2689;50.954;7.116;2023-04-03T11:37:50;22.80;23.20
5334;DHT22;2689;50.954;7.116;2023-04-03T11:40:24;22.80;24.80
5334;DHT22;2689;50.954;7.116;2023-04-03T11:42:53;22.90;23.50
5334;DHT22;2689;50.954;7.116;2023-04-03T11:45:35;23.40;24.10
5334;DHT22;2689;50.954;7.116;2023-04-03T11:48:06;23.90;24.10
5334;DHT22;2689;50.954;7.116;2023-04-03T11:50:44;24.30;22.90
5334;DHT22;2689;50.954;7.116;2023-04-03T11:53:30;22.90;22.30
5334;DHT22;2689;50.954;7.116;2023-04-03T11:59:19;21.80;24.00
5334;DHT22;2689;50.954;7.116;2023-04-03T12:01:48;22.10;25.00
5334;DHT22;2689;50.954;7.116;2023-04-03T12:04:18;23.40;26.20
5334;DHT22;2689;50.954;7.116;2023-04-03T12:07:00;24.40;24.50
5334;DHT22;2689;50.954;7.116;2023-04-03T12:10:17;24.80;23.40
5334;DHT22;2689;50.954;7.116;2023-04-03T12:12:56;24.70;22.50
5334;DHT22;2689;50.954;7.116;2023-04-03T12:15:52;24.60;23.10
5334;DHT22;2689;50.954;7.116;2023-04-03T12:18:41;25.00;24.30
5334;DHT22;2689;50.954;7.116;2023-04-03T12:21:09;25.30;22.70
5334;DHT22;2689;50.954;7.116;2023-04-03T12:23:37;24.60;22.10
5334;DHT22;2689;50.954;7.116;2023-04-03T12:26:23;23.90;22.30
5334;DHT22;2689;50.954;7.116;2023-04-03T12:28:53;23.90;22.40
5334;DHT22;2689;50.954;7.116;2023-04-03T12:31:24;23.70;22.30
5334;DHT22;2689;50.954;7.116;2023-04-03T12:34:04;23.40;22.50
5334;DHT22;2689;50.954;7.116;2023-04-03T12:36:44;23.10;22.90
5334;DHT22;2689;50.954;7.116;2023-04-03T12:39:26;22.90;23.40
5334;DHT22;2689;50.954;7.116;2023-04-03T12:42:08;23.40;23.70
5334;DHT22;2689;50.954;7.116;2023-04-03T12:44:48;23.70;23.70
5334;DHT22;2689;50.954;7.116;2023-04-03T12:47:27;24.50;24.50
5334;DHT22;2689;50.954;7.116;2023-04-03T12:49:54;24.50;22.70
5334;DHT22;2689;50.954;7.116;2023-04-03T12:52:32;24.30;23.40
5334;DHT22;2689;50.954;7.116;2023-04-03T12:55:00;24.40;23.10
5334;DHT22;2689;50.954;7.116;2023-04-03T12:57:30;24.70;23.90
5334;DHT22;2689;50.954;7.116;2023-04-03T12:59:58;23.80;22.40
5334;DHT22;2689;50.954;7.116;2023-04-03T13:02:26;22.20;23.00
5334;DHT22;2689;50.954;7.116;2023-04-03T13:04:56;21.70;24.30
5334;DHT22;2689;50.954;7.116;2023-04-03T13:07:28;21.20;24.20
5334;DHT22;2689;50.954;7.116;2023-04-03T13:10:15;20.70;24.90
5334;DHT22;2689;50.954;7.116;2023-04-03T13:12:47;21.10;25.20
5334;DHT22;2689;50.954;7.116;2023-04-03T13:15:17;21.70;25.80
5334;DHT22;2689;50.954;7.116;2023-04-03T13:17:45;21.70;24.80
5334;DHT22;2689;50.954;7.116;2023-04-03T13:20:16;21.20;24.90
5334;DHT22;2689;50.954;7.116;2023-04-03T13:22:49;21.20;25.70
5334;DHT22;2689;50.954;7.116;2023-04-03T13:25:18;21.90;26.60
5334;DHT22;2689;50.954;7.116;2023-04-03T13:27:46;22.20;25.40
5334;DHT22;2689;50.954;7.116;2023-04-03T13:30:23;21.60;25.00
5334;DHT22;2689;50.954;7.116;2023-04-03T13:32:51;20.50;25.40
5334;DHT22;2689;50.954;7.116;2023-04-03T13:35:30;20.20;26.80
5334;DHT22;2689;50.954;7.116;2023-04-03T13:38:01;20.80;26.60
5334;DHT22;2689;50.954;7.116;2023-04-03T13:40:28;20.50;25.80
5334;DHT22;2689;50.954;7.116;2023-04-03T13:43:00;19.90;26.50
5334;DHT22;2689;50.954;7.116;2023-04-03T13:45:29;20.10;27.00
5334;DHT22;2689;50.954;7.116;2023-04-03T13:48:10;20.90;27.80
5334;DHT22;2689;50.954;7.116;2023-04-03T13:50:57;21.30;26.50
5334;DHT22;2689;50.954;7.116;2023-04-03T13:53:26;22.00;27.30
5334;DHT22;2689;50.954;7.116;2023-04-03T13:55:58;21.90;25.90
5334;DHT22;2689;50.954;7.116;2023-04-03T13:58:25;21.50;26.60
5334;DHT22;2689;50.954;7.116;2023-04-03T14:00:55;21.00;26.60
5334;DHT22;2689;50.954;7.116;2023-04-03T14:03:25;21.10;26.90
5334;DHT22;2689;50.954;7.116;2023-04-03T14:05:53;21.30;27.10
5334;DHT22;2689;50.954;7.116;2023-04-03T14:08:20;21.10;27.20
5334;DHT22;2689;50.954;7.116;2023-04-03T14:10:49;20.80;27.60
5334;DHT22;2689;50.954;7.116;2023-04-03T14:13:19;20.90;27.60
5334;DHT22;2689;50.954;7.116;2023-04-03T14:15:47;21.10;27.80
5334;DHT22;2689;50.954;7.116;2023-04-03T14:18:18;20.90;27.40
5334;DHT22;2689;50.954;7.116;2023-04-03T14:20:45;20.50;27.40
5334;DHT22;2689;50.954;7.116;2023-04-03T14:23:11;20.70;28.70
5334;DHT22;2689;50.954;7.116;2023-04-03T14:25:39;20.20;27.90
5334;DHT22;2689;50.954;7.116;2023-04-03T14:28:15;19.80;28.20
5334;DHT22;2689;50.954;7.116;2023-04-03T14:30:42;18.90;26.90
5334;DHT22;2689;50.954;7.116;2023-04-03T14:33:12;17.50;26.90
5334;DHT22;2689;50.954;7.116;2023-04-03T14:35:41;16.50;27.70
5334;DHT22;2689;50.954;7.116;2023-04-03T14:38:22;16.00;29.20
5334;DHT22;2689;50.954;7.116;2023-04-03T14:40:50;15.70;30.20
5334;DHT22;2689;50.954;7.116;2023-04-03T14:43:19;15.90;31.40
5334;DHT22;2689;50.954;7.116;2023-04-03T14:45:46;16.40;31.60
5334;DHT22;2689;50.954;7.116;2023-04-03T14:48:18;16.40;30.70
5334;DHT22;2689;50.954;7.116;2023-04-03T14:50:46;16.40;31.20
5334;DHT22;2689;50.954;7.116;2023-04-03T14:53:14;15.80;30.70
5334;DHT22;2689;50.954;7.116;2023-04-03T14:55:43;15.90;31.70
5334;DHT22;2689;50.954;7.116;2023-04-03T14:58:13;15.60;31.40
5334;DHT22;2689;50.954;7.116;2023-04-03T15:00:43;15.40;31.90
5334;DHT22;2689;50.954;7.116;2023-04-03T15:03:14;15.40;32.40
5334;DHT22;2689;50.954;7.116;2023-04-03T15:05:42;15.20;33.00
5334;DHT22;2689;50.954;7.116;2023-04-03T15:08:18;14.90;32.50
5334;DHT22;2689;50.954;7.116;2023-04-03T15:10:45;14.30;31.80
5334;DHT22;2689;50.954;7.116;2023-04-03T15:13:13;13.80;32.30
5334;DHT22;2689;50.954;7.116;2023-04-03T15:15:41;13.80;34.10
5334;DHT22;2689;50.954;7.116;2023-04-03T15:18:14;13.90;33.80
5334;DHT22;2689;50.954;7.116;2023-04-03T15:20:41;13.60;33.30
5334;DHT22;2689;50.954;7.116;2023-04-03T15:23:09;13.40;33.70
5334;DHT22;2689;50.954;7.116;2023-04-03T15:25:36;13.20;34.20
5334;DHT22;2689;50.954;7.116;2023-04-03T15:28:03;13.10;34.00
5334;DHT22;2689;50.954;7.116;2023-04-03T15:30:31;12.90;33.80
5334;DHT22;2689;50.954;7.116;2023-04-03T15:32:59;12.70;35.20
5334;DHT22;2689;50.954;7.116;2023-04-03T15:35:26;12.70;36.00
5334;DHT22;2689;50.954;7.116;2023-04-03T15:37:53;12.70;37.20
5334;DHT22;2689;50.954;7.116;2023-04-03T15:40:19;12.70;37.60
5334;DHT22;2689;50.954;7.116;2023-04-03T15:42:46;12.50;37.60
5334;DHT22;2689;50.954;7.116;2023-04-03T15:45:13;12.50;37.60
5334;DHT22;2689;50.954;7.116;2023-04-03T15:47:40;12.30;37.30
5334;DHT22;2689;50.954;7.116;2023-04-03T15:50:09;12.30;37.60
5334;DHT22;2689;50.954;7.116;2023-04-03T15:52:37;12.30;37.50
5334;DHT22;2689;50.954;7.116;2023-04-03T15:55:04;12.30;37.60
5334;DHT22;2689;50.954;7.116;2023-04-03T15:57:31;12.30;37.90
5334;DHT22;2689;50.954;7.116;2023-04-03T15:59:58;12.30;38.40
5334;DHT22;2689;50.954;7.116;2023-04-03T16:02:24;12.10;38.30
5334;DHT22;2689;50.954;7.116;2023-04-03T16:04:53;11.90;38.70
5334;DHT22;2689;50.954;7.116;2023-04-03T16:07:21;11.80;38.70
5334;DHT22;2689;50.954;7.116;2023-04-03T16:09:48;11.80;39.60
5334;DHT22;2689;50.954;7.116;2023-04-03T16:12:14;11.70;39.30
5334;DHT22;2689;50.954;7.116;2023-04-03T16:14:41;11.70;39.90
5334;DHT22;2689;50.954;7.116;2023-04-03T16:17:08;11.70;39.70
5334;DHT22;2689;50.954;7.116;2023-04-03T16:19:35;11.50;38.70
5334;DHT22;2689;50.954;7.116;2023-04-03T16:22:02;11.30;38.80
5334;DHT22;2689;50.954;7.116;2023-04-03T16:24:30;11.20;39.20
5334;DHT22;2689;50.954;7.116;2023-04-03T16:26:57;11.10;39.50
5334;DHT22;2689;50.954;7.116;2023-04-03T16:29:24;11.00;39.90
5334;DHT22;2689;50.954;7.116;2023-04-03T16:31:51;11.10;40.40
5334;DHT22;2689;50.954;7.116;2023-04-03T16:34:18;11.00;40.00
5334;DHT22;2689;50.954;7.116;2023-04-03T16:36:45;10.90;40.30
5334;DHT22;2689;50.954;7.116;2023-04-03T16:39:11;10.90;40.30